Aeroporto :
LOGIN :

Iscrizione | Disclaimer

   EN    FR    IT 

 










Sommario :    VFR   VFR Marginale   IFR   IFR Intensivo   IFR Molto Intensivo
Visibilità : 
Base nubi : 
>= 8 km
>= 3000ft
5 / 8 km
1000 / 3000 ft
1500m / 5 km
500 / 1000 ft
800 / 1500m
200 / 500 ft
< 800m
< 200 ft
Simboli :   Temporali  Nebbia  Neve Forte  Precipitazioni Forti  Vento > 20 kt
SIGMETs :   Varie  Temporali  Ghiacco  Turbolenza  Onda orograficha  Ceneri Vulcaniche






- Altitudine del aeroporto : 19 ft
- Codice IATA : BEB


EGPL - Benbecula

ULTIMO METAR :
  • 291620Z 26020KT 9999 VCSH SCT010 BKN022 09/07 Q0989

METARs OBSOLETI :
  • 291550Z 25020KT 9999 VCSH SCT010 BKN022 09/07 Q0989
  • 291520Z 25008KT 9999 VCSH SCT010 BKN027 08/07 Q0988
  • 291450Z 25012KT 9999 VCSH BKN012 BKN020 08/06 Q0988
  • 291420Z 23010KT 9999 -SHRA FEW010 BKN019 BKN027 08/06 Q0988
  • 291350Z 22006KT 9999 VCSH SCT016 BKN040 07/06 Q0988

TAF TAF EGPL
Valido dal 29 a 15 ore il 30 a 00 ore UTC


291358Z 2915/2924 21009KT 9999 SCT020
BECMG 2915/2917 27012KT
PROB30
TEMPO 2915/2917 27018G28KT 6000 SHRA BKN010
ATIS : +44 1870 604 818



MetMap, La meteo Aeronautica in un colpo d'occhio ! - Copyright ORBIFLY Dicembre 2007 - Disclaimer

ORBIFLY MET'MAP TEAM :

Programmazione e sviluppo : Alexandra Zaïnal
Concezione : Baudouin d'Aumeries
Aiuto per la programmazione : Marc-Olivier Méhu
Supporto tecnico e logistico : Manuel Goepfert
Aiuto per la traduzione : Arnaldo La Scala

Contatto : metmap@orbifly.com




FONTI E CREDITI :

   NOAA